sensor_id;sensor_type;location;lat;lon;timestamp;pressure;altitude;pressure_sealevel;temperature
67501;BMP180;54349;52.528;19.760;2023-04-24T00:00:30;99736.40;;;24.50
67501;BMP180;54349;52.528;19.760;2023-04-24T00:03:19;99733.20;;;24.50
67501;BMP180;54349;52.528;19.760;2023-04-24T00:05:49;99728.40;;;24.50
67501;BMP180;54349;52.528;19.760;2023-04-24T00:08:18;99733.40;;;24.50
67501;BMP180;54349;52.528;19.760;2023-04-24T00:10:46;99728.60;;;24.50
67501;BMP180;54349;52.528;19.760;2023-04-24T00:13:14;99730.80;;;24.50
67501;BMP180;54349;52.528;19.760;2023-04-24T00:15:43;99727.80;;;24.50
67501;BMP180;54349;52.528;19.760;2023-04-24T00:18:11;99727.40;;;24.50
67501;BMP180;54349;52.528;19.760;2023-04-24T00:20:39;99728.60;;;24.50
67501;BMP180;54349;52.528;19.760;2023-04-24T00:23:08;99728.20;;;24.50
67501;BMP180;54349;52.528;19.760;2023-04-24T00:25:36;99730.00;;;24.50
67501;BMP180;54349;52.528;19.760;2023-04-24T00:28:04;99726.00;;;24.50
67501;BMP180;54349;52.528;19.760;2023-04-24T00:30:33;99721.20;;;24.50
67501;BMP180;54349;52.528;19.760;2023-04-24T00:33:01;99722.20;;;24.50
67501;BMP180;54349;52.528;19.760;2023-04-24T00:35:29;99725.00;;;24.50
67501;BMP180;54349;52.528;19.760;2023-04-24T00:37:57;99718.20;;;24.40
67501;BMP180;54349;52.528;19.760;2023-04-24T00:40:27;99715.60;;;24.40
67501;BMP180;54349;52.528;19.760;2023-04-24T00:42:56;99719.20;;;24.40
67501;BMP180;54349;52.528;19.760;2023-04-24T00:45:25;99720.40;;;24.40
67501;BMP180;54349;52.528;19.760;2023-04-24T00:47:54;99719.80;;;24.30
67501;BMP180;54349;52.528;19.760;2023-04-24T00:50:24;99718.60;;;24.30
67501;BMP180;54349;52.528;19.760;2023-04-24T00:52:53;99718.80;;;24.30
67501;BMP180;54349;52.528;19.760;2023-04-24T00:55:21;99714.00;;;24.30
67501;BMP180;54349;52.528;19.760;2023-04-24T00:57:50;99711.60;;;24.30
67501;BMP180;54349;52.528;19.760;2023-04-24T01:00:20;99714.00;;;24.20
67501;BMP180;54349;52.528;19.760;2023-04-24T01:02:48;99714.00;;;24.20
67501;BMP180;54349;52.528;19.760;2023-04-24T01:05:18;99710.00;;;24.20
67501;BMP180;54349;52.528;19.760;2023-04-24T01:07:47;99709.00;;;24.20
67501;BMP180;54349;52.528;19.760;2023-04-24T01:10:17;99705.40;;;24.20
67501;BMP180;54349;52.528;19.760;2023-04-24T01:12:46;99706.00;;;24.10
67501;BMP180;54349;52.528;19.760;2023-04-24T01:15:14;99701.00;;;24.10
67501;BMP180;54349;52.528;19.760;2023-04-24T01:17:43;99701.20;;;24.10
67501;BMP180;54349;52.528;19.760;2023-04-24T01:20:12;99701.20;;;24.10
67501;BMP180;54349;52.528;19.760;2023-04-24T01:22:42;99695.80;;;24.10
67501;BMP180;54349;52.528;19.760;2023-04-24T01:25:10;99698.40;;;24.00
67501;BMP180;54349;52.528;19.760;2023-04-24T01:27:38;99697.40;;;24.00
67501;BMP180;54349;52.528;19.760;2023-04-24T01:30:08;99691.80;;;24.00
67501;BMP180;54349;52.528;19.760;2023-04-24T01:32:37;99692.00;;;24.00
67501;BMP180;54349;52.528;19.760;2023-04-24T01:35:07;99692.00;;;24.00
67501;BMP180;54349;52.528;19.760;2023-04-24T01:37:36;99690.80;;;23.90
67501;BMP180;54349;52.528;19.760;2023-04-24T01:40:08;99690.40;;;23.90
67501;BMP180;54349;52.528;19.760;2023-04-24T01:42:36;99689.00;;;23.90
67501;BMP180;54349;52.528;19.760;2023-04-24T01:45:06;99686.60;;;23.90
67501;BMP180;54349;52.528;19.760;2023-04-24T01:47:35;99681.20;;;23.90
67501;BMP180;54349;52.528;19.760;2023-04-24T01:50:04;99682.20;;;23.90
67501;BMP180;54349;52.528;19.760;2023-04-24T01:52:47;99676.00;;;23.86
67501;BMP180;54349;52.528;19.760;2023-04-24T01:55:16;99671.80;;;23.80
67501;BMP180;54349;52.528;19.760;2023-04-24T01:57:46;99666.80;;;23.80
67501;BMP180;54349;52.528;19.760;2023-04-24T02:00:14;99668.40;;;23.80
67501;BMP180;54349;52.528;19.760;2023-04-24T02:02:44;99668.80;;;23.80
67501;BMP180;54349;52.528;19.760;2023-04-24T02:05:15;99667.80;;;23.80
67501;BMP180;54349;52.528;19.760;2023-04-24T02:07:43;99667.40;;;23.78
67501;BMP180;54349;52.528;19.760;2023-04-24T02:10:11;99661.80;;;23.72
67501;BMP180;54349;52.528;19.760;2023-04-24T02:12:43;99661.00;;;23.70
67501;BMP180;54349;52.528;19.760;2023-04-24T02:15:11;99658.20;;;23.70
67501;BMP180;54349;52.528;19.760;2023-04-24T02:17:40;99658.60;;;23.70
67501;BMP180;54349;52.528;19.760;2023-04-24T02:20:08;99652.00;;;23.70
67501;BMP180;54349;52.528;19.760;2023-04-24T02:22:38;99650.40;;;23.70
67501;BMP180;54349;52.528;19.760;2023-04-24T02:25:08;99646.60;;;23.70
67501;BMP180;54349;52.528;19.760;2023-04-24T02:27:36;99645.80;;;23.62
67501;BMP180;54349;52.528;19.760;2023-04-24T02:30:07;99642.40;;;23.60
67501;BMP180;54349;52.528;19.760;2023-04-24T02:32:36;99640.40;;;23.60
67501;BMP180;54349;52.528;19.760;2023-04-24T02:35:05;99635.60;;;23.60
67501;BMP180;54349;52.528;19.760;2023-04-24T02:37:34;99633.60;;;23.60
67501;BMP180;54349;52.528;19.760;2023-04-24T02:40:03;99632.80;;;23.60
67501;BMP180;54349;52.528;19.760;2023-04-24T02:42:33;99626.40;;;23.60
67501;BMP180;54349;52.528;19.760;2023-04-24T02:45:01;99625.00;;;23.58
67501;BMP180;54349;52.528;19.760;2023-04-24T02:47:30;99625.00;;;23.54
67501;BMP180;54349;52.528;19.760;2023-04-24T02:50:02;99619.80;;;23.50
67501;BMP180;54349;52.528;19.760;2023-04-24T02:52:30;99622.80;;;23.50
67501;BMP180;54349;52.528;19.760;2023-04-24T02:54:58;99622.80;;;23.50
67501;BMP180;54349;52.528;19.760;2023-04-24T02:57:27;99617.60;;;23.50
67501;BMP180;54349;52.528;19.760;2023-04-24T02:59:56;99619.40;;;23.50
67501;BMP180;54349;52.528;19.760;2023-04-24T03:02:24;99618.40;;;23.48
67501;BMP180;54349;52.528;19.760;2023-04-24T03:04:53;99617.40;;;23.42
67501;BMP180;54349;52.528;19.760;2023-04-24T03:07:21;99617.60;;;23.40
67501;BMP180;54349;52.528;19.760;2023-04-24T03:09:49;99617.20;;;23.40
67501;BMP180;54349;52.528;19.760;2023-04-24T03:12:17;99616.00;;;23.40
67501;BMP180;54349;52.528;19.760;2023-04-24T03:14:46;99614.60;;;23.40
67501;BMP180;54349;52.528;19.760;2023-04-24T03:17:14;99617.60;;;23.40
67501;BMP180;54349;52.528;19.760;2023-04-24T03:19:42;99613.60;;;23.40
67501;BMP180;54349;52.528;19.760;2023-04-24T03:22:11;99616.00;;;23.40
67501;BMP180;54349;52.528;19.760;2023-04-24T03:24:40;99620.40;;;23.40
67501;BMP180;54349;52.528;19.760;2023-04-24T03:27:08;99614.40;;;23.32
67501;BMP180;54349;52.528;19.760;2023-04-24T03:30:07;99620.00;;;23.30
67501;BMP180;54349;52.528;19.760;2023-04-24T03:32:44;99615.80;;;23.30
67501;BMP180;54349;52.528;19.760;2023-04-24T03:35:14;99617.80;;;23.30
67501;BMP180;54349;52.528;19.760;2023-04-24T03:37:42;99622.00;;;23.30
67501;BMP180;54349;52.528;19.760;2023-04-24T03:40:29;99624.40;;;23.30
67501;BMP180;54349;52.528;19.760;2023-04-24T03:42:58;99625.60;;;23.30
67501;BMP180;54349;52.528;19.760;2023-04-24T03:45:26;99620.80;;;23.30
67501;BMP180;54349;52.528;19.760;2023-04-24T03:47:55;99621.20;;;23.24
67501;BMP180;54349;52.528;19.760;2023-04-24T03:50:23;99618.40;;;23.22
67501;BMP180;54349;52.528;19.760;2023-04-24T03:52:51;99622.20;;;23.20
67501;BMP180;54349;52.528;19.760;2023-04-24T03:55:30;99621.00;;;23.20
67501;BMP180;54349;52.528;19.760;2023-04-24T03:57:59;99619.20;;;23.20
67501;BMP180;54349;52.528;19.760;2023-04-24T04:00:26;99619.20;;;23.20
67501;BMP180;54349;52.528;19.760;2023-04-24T04:03:03;99619.80;;;23.20
67501;BMP180;54349;52.528;19.760;2023-04-24T04:05:32;99621.60;;;23.20
67501;BMP180;54349;52.528;19.760;2023-04-24T04:08:01;99622.20;;;23.20
67501;BMP180;54349;52.528;19.760;2023-04-24T04:10:29;99625.20;;;23.16
67501;BMP180;54349;52.528;19.760;2023-04-24T04:12:57;99630.00;;;23.16
67501;BMP180;54349;52.528;19.760;2023-04-24T04:15:25;99627.40;;;23.12
67501;BMP180;54349;52.528;19.760;2023-04-24T04:17:55;99627.00;;;23.10
67501;BMP180;54349;52.528;19.760;2023-04-24T04:20:24;99627.40;;;23.10
67501;BMP180;54349;52.528;19.760;2023-04-24T04:22:52;99625.40;;;23.10
67501;BMP180;54349;52.528;19.760;2023-04-24T04:25:25;99622.80;;;23.10
67501;BMP180;54349;52.528;19.760;2023-04-24T04:27:54;99622.60;;;23.10
67501;BMP180;54349;52.528;19.760;2023-04-24T04:30:22;99626.40;;;23.10
67501;BMP180;54349;52.528;19.760;2023-04-24T04:32:59;99626.20;;;23.10
67501;BMP180;54349;52.528;19.760;2023-04-24T04:35:28;99628.20;;;23.10
67501;BMP180;54349;52.528;19.760;2023-04-24T04:37:58;99629.40;;;23.10
67501;BMP180;54349;52.528;19.760;2023-04-24T04:40:46;99635.00;;;23.10
67501;BMP180;54349;52.528;19.760;2023-04-24T04:43:15;99633.60;;;23.10
67501;BMP180;54349;52.528;19.760;2023-04-24T04:45:48;99633.80;;;23.04
67501;BMP180;54349;52.528;19.760;2023-04-24T04:48:27;99637.60;;;23.00
67501;BMP180;54349;52.528;19.760;2023-04-24T04:50:55;99636.60;;;23.00
67501;BMP180;54349;52.528;19.760;2023-04-24T04:53:24;99640.80;;;23.00
67501;BMP180;54349;52.528;19.760;2023-04-24T04:55:53;99636.60;;;23.00
67501;BMP180;54349;52.528;19.760;2023-04-24T04:58:26;99635.40;;;23.00
67501;BMP180;54349;52.528;19.760;2023-04-24T05:00:58;99633.60;;;23.00
67501;BMP180;54349;52.528;19.760;2023-04-24T05:03:40;99635.20;;;23.00
67501;BMP180;54349;52.528;19.760;2023-04-24T05:06:10;99635.00;;;23.00
67501;BMP180;54349;52.528;19.760;2023-04-24T05:08:39;99638.00;;;23.00
67501;BMP180;54349;52.528;19.760;2023-04-24T05:11:17;99636.00;;;23.00
67501;BMP180;54349;52.528;19.760;2023-04-24T05:13:47;99632.80;;;23.00
67501;BMP180;54349;52.528;19.760;2023-04-24T05:16:19;99631.80;;;23.00
67501;BMP180;54349;52.528;19.760;2023-04-24T05:18:47;99633.80;;;23.00
67501;BMP180;54349;52.528;19.760;2023-04-24T05:21:18;99634.40;;;23.00
67501;BMP180;54349;52.528;19.760;2023-04-24T05:23:52;99630.20;;;23.00
67501;BMP180;54349;52.528;19.760;2023-04-24T05:26:31;99623.80;;;23.00
67501;BMP180;54349;52.528;19.760;2023-04-24T05:29:03;99621.40;;;23.00
67501;BMP180;54349;52.528;19.760;2023-04-24T05:31:32;99612.80;;;23.00
67501;BMP180;54349;52.528;19.760;2023-04-24T05:34:01;99611.80;;;23.00
67501;BMP180;54349;52.528;19.760;2023-04-24T05:36:31;99612.20;;;23.00
67501;BMP180;54349;52.528;19.760;2023-04-24T05:39:03;99608.60;;;23.00
67501;BMP180;54349;52.528;19.760;2023-04-24T05:41:36;99608.40;;;23.00
67501;BMP180;54349;52.528;19.760;2023-04-24T05:44:07;99612.40;;;23.00
67501;BMP180;54349;52.528;19.760;2023-04-24T05:46:38;99603.40;;;23.00
67501;BMP180;54349;52.528;19.760;2023-04-24T05:49:06;99606.00;;;22.96
67501;BMP180;54349;52.528;19.760;2023-04-24T05:51:36;99609.00;;;23.00
67501;BMP180;54349;52.528;19.760;2023-04-24T05:54:04;99608.80;;;23.00
67501;BMP180;54349;52.528;19.760;2023-04-24T05:56:33;99608.60;;;23.00
67501;BMP180;54349;52.528;19.760;2023-04-24T05:59:03;99609.80;;;23.00
67501;BMP180;54349;52.528;19.760;2023-04-24T06:01:32;99609.80;;;23.00
67501;BMP180;54349;52.528;19.760;2023-04-24T06:04:12;99611.80;;;22.98
67501;BMP180;54349;52.528;19.760;2023-04-24T06:06:43;99611.00;;;22.96
67501;BMP180;54349;52.528;19.760;2023-04-24T06:09:12;99610.20;;;22.98
67501;BMP180;54349;52.528;19.760;2023-04-24T06:11:40;99614.40;;;22.96
67501;BMP180;54349;52.528;19.760;2023-04-24T06:14:09;99607.80;;;22.94
67501;BMP180;54349;52.528;19.760;2023-04-24T06:16:37;99616.20;;;22.94
67501;BMP180;54349;52.528;19.760;2023-04-24T06:19:15;99609.80;;;22.92
67501;BMP180;54349;52.528;19.760;2023-04-24T06:21:44;99611.40;;;22.92
67501;BMP180;54349;52.528;19.760;2023-04-24T06:24:14;99611.60;;;22.92
67501;BMP180;54349;52.528;19.760;2023-04-24T06:26:44;99606.40;;;22.92
67501;BMP180;54349;52.528;19.760;2023-04-24T06:29:12;99608.80;;;22.96
67501;BMP180;54349;52.528;19.760;2023-04-24T06:31:40;99615.60;;;22.92
67501;BMP180;54349;52.528;19.760;2023-04-24T06:34:10;99610.60;;;22.96
67501;BMP180;54349;52.528;19.760;2023-04-24T06:36:38;99610.60;;;22.94
67501;BMP180;54349;52.528;19.760;2023-04-24T06:39:06;99607.80;;;22.96
67501;BMP180;54349;52.528;19.760;2023-04-24T06:41:35;99607.20;;;23.00
67501;BMP180;54349;52.528;19.760;2023-04-24T06:44:03;99608.40;;;23.00
67501;BMP180;54349;52.528;19.760;2023-04-24T06:46:31;99605.80;;;23.00
67501;BMP180;54349;52.528;19.760;2023-04-24T06:49:00;99602.80;;;23.00
67501;BMP180;54349;52.528;19.760;2023-04-24T06:51:28;99606.20;;;23.00
67501;BMP180;54349;52.528;19.760;2023-04-24T06:53:56;99606.00;;;23.10
67501;BMP180;54349;52.528;19.760;2023-04-24T06:56:25;99602.00;;;23.10
67501;BMP180;54349;52.528;19.760;2023-04-24T06:58:54;99604.20;;;23.10
67501;BMP180;54349;52.528;19.760;2023-04-24T07:01:22;99602.00;;;23.20
67501;BMP180;54349;52.528;19.760;2023-04-24T07:03:51;99601.20;;;23.20
67501;BMP180;54349;52.528;19.760;2023-04-24T07:06:20;99599.60;;;23.20
67501;BMP180;54349;52.528;19.760;2023-04-24T07:08:50;99597.20;;;23.30
67501;BMP180;54349;52.528;19.760;2023-04-24T07:11:18;99600.40;;;23.30
67501;BMP180;54349;52.528;19.760;2023-04-24T07:13:48;99600.40;;;23.30
67501;BMP180;54349;52.528;19.760;2023-04-24T07:16:16;99601.00;;;23.36
67501;BMP180;54349;52.528;19.760;2023-04-24T07:18:44;99598.00;;;23.40
67501;BMP180;54349;52.528;19.760;2023-04-24T07:21:12;99601.80;;;23.40
67501;BMP180;54349;52.528;19.760;2023-04-24T07:23:40;99596.40;;;23.40
67501;BMP180;54349;52.528;19.760;2023-04-24T07:26:09;99594.40;;;23.50
67501;BMP180;54349;52.528;19.760;2023-04-24T07:28:37;99590.20;;;23.50
67501;BMP180;54349;52.528;19.760;2023-04-24T07:31:08;99593.20;;;23.50
67501;BMP180;54349;52.528;19.760;2023-04-24T07:33:36;99589.60;;;23.50
67501;BMP180;54349;52.528;19.760;2023-04-24T07:36:04;99589.60;;;23.50
67501;BMP180;54349;52.528;19.760;2023-04-24T07:38:33;99585.80;;;23.56
67501;BMP180;54349;52.528;19.760;2023-04-24T07:41:01;99580.40;;;23.56
67501;BMP180;54349;52.528;19.760;2023-04-24T07:43:29;99578.20;;;23.56
67501;BMP180;54349;52.528;19.760;2023-04-24T07:45:57;99575.20;;;23.60
67501;BMP180;54349;52.528;19.760;2023-04-24T07:48:25;99574.00;;;23.60
67501;BMP180;54349;52.528;19.760;2023-04-24T07:50:54;99572.40;;;23.60
67501;BMP180;54349;52.528;19.760;2023-04-24T07:53:22;99571.60;;;23.60
67501;BMP180;54349;52.528;19.760;2023-04-24T07:55:51;99570.40;;;23.60
67501;BMP180;54349;52.528;19.760;2023-04-24T07:58:19;99566.80;;;23.60
67501;BMP180;54349;52.528;19.760;2023-04-24T08:00:47;99566.20;;;23.60
67501;BMP180;54349;52.528;19.760;2023-04-24T08:03:15;99558.60;;;23.60
67501;BMP180;54349;52.528;19.760;2023-04-24T08:05:47;99562.00;;;23.60
67501;BMP180;54349;52.528;19.760;2023-04-24T08:08:16;99561.80;;;23.60
67501;BMP180;54349;52.528;19.760;2023-04-24T08:10:44;99558.00;;;23.60
67501;BMP180;54349;52.528;19.760;2023-04-24T08:13:12;99556.20;;;23.60
67501;BMP180;54349;52.528;19.760;2023-04-24T08:15:40;99556.80;;;23.60
67501;BMP180;54349;52.528;19.760;2023-04-24T08:18:09;99555.80;;;23.60
67501;BMP180;54349;52.528;19.760;2023-04-24T08:20:39;99559.60;;;23.60
67501;BMP180;54349;52.528;19.760;2023-04-24T08:23:08;99554.40;;;23.60
67501;BMP180;54349;52.528;19.760;2023-04-24T08:25:36;99557.00;;;23.60
67501;BMP180;54349;52.528;19.760;2023-04-24T08:28:06;99550.60;;;23.60
67501;BMP180;54349;52.528;19.760;2023-04-24T08:30:34;99557.00;;;23.60
67501;BMP180;54349;52.528;19.760;2023-04-24T08:33:02;99551.80;;;23.60
67501;BMP180;54349;52.528;19.760;2023-04-24T08:35:31;99558.00;;;23.60
67501;BMP180;54349;52.528;19.760;2023-04-24T08:37:59;99557.60;;;23.60
67501;BMP180;54349;52.528;19.760;2023-04-24T08:40:29;99558.40;;;23.60
67501;BMP180;54349;52.528;19.760;2023-04-24T08:42:59;99556.60;;;23.60
67501;BMP180;54349;52.528;19.760;2023-04-24T08:45:28;99559.20;;;23.62
67501;BMP180;54349;52.528;19.760;2023-04-24T08:47:58;99554.80;;;23.66
67501;BMP180;54349;52.528;19.760;2023-04-24T08:50:27;99556.00;;;23.70
67501;BMP180;54349;52.528;19.760;2023-04-24T08:52:57;99554.60;;;23.68
67501;BMP180;54349;52.528;19.760;2023-04-24T08:55:25;99550.60;;;23.70
67501;BMP180;54349;52.528;19.760;2023-04-24T08:57:54;99548.20;;;23.70
67501;BMP180;54349;52.528;19.760;2023-04-24T09:00:22;99547.60;;;23.70
67501;BMP180;54349;52.528;19.760;2023-04-24T09:02:53;99549.00;;;23.70
67501;BMP180;54349;52.528;19.760;2023-04-24T09:05:23;99547.80;;;23.70
67501;BMP180;54349;52.528;19.760;2023-04-24T09:07:56;99546.00;;;23.70
67501;BMP180;54349;52.528;19.760;2023-04-24T09:10:25;99547.20;;;23.70
67501;BMP180;54349;52.528;19.760;2023-04-24T09:12:55;99547.20;;;23.70
67501;BMP180;54349;52.528;19.760;2023-04-24T09:15:24;99548.00;;;23.70
67501;BMP180;54349;52.528;19.760;2023-04-24T09:17:53;99552.40;;;23.70
67501;BMP180;54349;52.528;19.760;2023-04-24T09:20:21;99546.80;;;23.70
67501;BMP180;54349;52.528;19.760;2023-04-24T09:22:54;99549.20;;;23.70
67501;BMP180;54349;52.528;19.760;2023-04-24T09:25:32;99547.20;;;23.70
67501;BMP180;54349;52.528;19.760;2023-04-24T09:28:04;99547.60;;;23.70
67501;BMP180;54349;52.528;19.760;2023-04-24T09:30:34;99545.40;;;23.70
67501;BMP180;54349;52.528;19.760;2023-04-24T09:33:15;99542.40;;;23.70
67501;BMP180;54349;52.528;19.760;2023-04-24T09:35:51;99549.00;;;23.76
67501;BMP180;54349;52.528;19.760;2023-04-24T09:38:33;99549.00;;;23.78
67501;BMP180;54349;52.528;19.760;2023-04-24T09:41:06;99547.20;;;23.80
67501;BMP180;54349;52.528;19.760;2023-04-24T09:43:35;99542.00;;;23.80
67501;BMP180;54349;52.528;19.760;2023-04-24T09:46:07;99539.00;;;23.80
67501;BMP180;54349;52.528;19.760;2023-04-24T09:48:37;99539.20;;;23.80
67501;BMP180;54349;52.528;19.760;2023-04-24T09:51:06;99536.80;;;23.80
67501;BMP180;54349;52.528;19.760;2023-04-24T09:53:35;99529.80;;;23.80
67501;BMP180;54349;52.528;19.760;2023-04-24T09:56:09;99530.40;;;23.80
67501;BMP180;54349;52.528;19.760;2023-04-24T09:58:38;99529.40;;;23.80
67501;BMP180;54349;52.528;19.760;2023-04-24T10:01:06;99523.20;;;23.80
67501;BMP180;54349;52.528;19.760;2023-04-24T10:03:36;99520.80;;;23.80
67501;BMP180;54349;52.528;19.760;2023-04-24T10:06:05;99516.80;;;23.80
67501;BMP180;54349;52.528;19.760;2023-04-24T10:08:39;99515.00;;;23.80
67501;BMP180;54349;52.528;19.760;2023-04-24T10:11:08;99510.60;;;23.80
67501;BMP180;54349;52.528;19.760;2023-04-24T10:13:39;99515.00;;;23.80
67501;BMP180;54349;52.528;19.760;2023-04-24T10:16:09;99507.60;;;23.80
67501;BMP180;54349;52.528;19.760;2023-04-24T10:18:39;99513.60;;;23.80
67501;BMP180;54349;52.528;19.760;2023-04-24T10:21:08;99520.60;;;23.82
67501;BMP180;54349;52.528;19.760;2023-04-24T10:23:37;99515.00;;;23.90
67501;BMP180;54349;52.528;19.760;2023-04-24T10:26:06;99512.40;;;23.90
67501;BMP180;54349;52.528;19.760;2023-04-24T10:28:36;99514.00;;;23.90
67501;BMP180;54349;52.528;19.760;2023-04-24T10:31:05;99509.00;;;23.90
67501;BMP180;54349;52.528;19.760;2023-04-24T10:33:34;99506.80;;;23.90
67501;BMP180;54349;52.528;19.760;2023-04-24T10:36:02;99501.40;;;23.90
67501;BMP180;54349;52.528;19.760;2023-04-24T10:38:31;99503.60;;;23.90
67501;BMP180;54349;52.528;19.760;2023-04-24T10:41:11;99501.60;;;23.90
67501;BMP180;54349;52.528;19.760;2023-04-24T10:43:44;99496.80;;;23.98
67501;BMP180;54349;52.528;19.760;2023-04-24T10:46:20;99493.20;;;24.00
67501;BMP180;54349;52.528;19.760;2023-04-24T10:48:56;99486.60;;;24.00
67501;BMP180;54349;52.528;19.760;2023-04-24T11:02:38;99483.40;;;24.06
67501;BMP180;54349;52.528;19.760;2023-04-24T11:05:08;99481.60;;;24.10
67501;BMP180;54349;52.528;19.760;2023-04-24T11:08:11;99478.00;;;24.10
67501;BMP180;54349;52.528;19.760;2023-04-24T11:11:12;99479.40;;;24.10
67501;BMP180;54349;52.528;19.760;2023-04-24T11:16:44;99473.40;;;24.10
67501;BMP180;54349;52.528;19.760;2023-04-24T11:21:59;99472.80;;;24.20
67501;BMP180;54349;52.528;19.760;2023-04-24T11:32:35;99478.60;;;24.20
67501;BMP180;54349;52.528;19.760;2023-04-24T11:35:14;99474.80;;;24.24
67501;BMP180;54349;52.528;19.760;2023-04-24T11:37:49;99475.80;;;24.20
67501;BMP180;54349;52.528;19.760;2023-04-24T11:40:22;99473.20;;;24.20
67501;BMP180;54349;52.528;19.760;2023-04-24T11:42:53;99469.00;;;24.30
67501;BMP180;54349;52.528;19.760;2023-04-24T11:45:27;99465.00;;;24.30
67501;BMP180;54349;52.528;19.760;2023-04-24T11:47:56;99468.60;;;24.30
67501;BMP180;54349;52.528;19.760;2023-04-24T11:50:26;99470.80;;;24.30
67501;BMP180;54349;52.528;19.760;2023-04-24T11:52:57;99467.20;;;24.40
67501;BMP180;54349;52.528;19.760;2023-04-24T11:55:27;99463.80;;;24.40
67501;BMP180;54349;52.528;19.760;2023-04-24T11:57:59;99461.80;;;24.40
67501;BMP180;54349;52.528;19.760;2023-04-24T12:00:32;99460.20;;;24.40
67501;BMP180;54349;52.528;19.760;2023-04-24T12:03:10;99460.60;;;24.40
67501;BMP180;54349;52.528;19.760;2023-04-24T12:05:40;99457.60;;;24.40
67501;BMP180;54349;52.528;19.760;2023-04-24T12:08:09;99454.80;;;24.40
67501;BMP180;54349;52.528;19.760;2023-04-24T12:10:37;99453.80;;;24.40
67501;BMP180;54349;52.528;19.760;2023-04-24T12:13:05;99450.20;;;24.40
67501;BMP180;54349;52.528;19.760;2023-04-24T12:15:39;99449.00;;;24.40
67501;BMP180;54349;52.528;19.760;2023-04-24T12:18:12;99451.00;;;24.46
67501;BMP180;54349;52.528;19.760;2023-04-24T12:20:41;99447.40;;;24.42
67501;BMP180;54349;52.528;19.760;2023-04-24T12:23:10;99444.00;;;24.44
67501;BMP180;54349;52.528;19.760;2023-04-24T12:25:38;99444.80;;;24.44
67501;BMP180;54349;52.528;19.760;2023-04-24T12:28:12;99442.80;;;24.46
67501;BMP180;54349;52.528;19.760;2023-04-24T12:30:48;99438.20;;;24.50
67501;BMP180;54349;52.528;19.760;2023-04-24T12:33:19;99438.40;;;24.50
67501;BMP180;54349;52.528;19.760;2023-04-24T12:35:51;99438.60;;;24.50
67501;BMP180;54349;52.528;19.760;2023-04-24T12:38:27;99431.40;;;24.50
67501;BMP180;54349;52.528;19.760;2023-04-24T12:41:09;99427.80;;;24.50
67501;BMP180;54349;52.528;19.760;2023-04-24T12:43:38;99418.00;;;24.50
67501;BMP180;54349;52.528;19.760;2023-04-24T12:46:06;99424.60;;;24.50
67501;BMP180;54349;52.528;19.760;2023-04-24T12:48:35;99421.80;;;24.50
67501;BMP180;54349;52.528;19.760;2023-04-24T12:51:04;99415.40;;;24.50
67501;BMP180;54349;52.528;19.760;2023-04-24T12:53:32;99408.60;;;24.50
67501;BMP180;54349;52.528;19.760;2023-04-24T12:56:01;99406.40;;;24.50
67501;BMP180;54349;52.528;19.760;2023-04-24T12:58:29;99407.80;;;24.50
67501;BMP180;54349;52.528;19.760;2023-04-24T13:00:58;99403.80;;;24.50
67501;BMP180;54349;52.528;19.760;2023-04-24T13:03:26;99392.80;;;24.50
67501;BMP180;54349;52.528;19.760;2023-04-24T13:05:55;99397.20;;;24.50
67501;BMP180;54349;52.528;19.760;2023-04-24T13:08:23;99394.00;;;24.50
67501;BMP180;54349;52.528;19.760;2023-04-24T13:10:51;99383.40;;;24.52
67501;BMP180;54349;52.528;19.760;2023-04-24T13:13:20;99384.80;;;24.60
67501;BMP180;54349;52.528;19.760;2023-04-24T13:15:48;99382.00;;;24.60
67501;BMP180;54349;52.528;19.760;2023-04-24T13:18:16;99372.00;;;24.60
67501;BMP180;54349;52.528;19.760;2023-04-24T13:20:56;99372.20;;;24.60
67501;BMP180;54349;52.528;19.760;2023-04-24T13:23:25;99367.00;;;24.60
67501;BMP180;54349;52.528;19.760;2023-04-24T13:25:53;99363.20;;;24.60
67501;BMP180;54349;52.528;19.760;2023-04-24T13:28:25;99361.80;;;24.60
67501;BMP180;54349;52.528;19.760;2023-04-24T13:30:54;99362.00;;;24.60
67501;BMP180;54349;52.528;19.760;2023-04-24T13:33:22;99358.60;;;24.60
67501;BMP180;54349;52.528;19.760;2023-04-24T13:35:51;99357.40;;;24.62
67501;BMP180;54349;52.528;19.760;2023-04-24T13:38:19;99355.80;;;24.66
67501;BMP180;54349;52.528;19.760;2023-04-24T13:40:49;99350.40;;;24.68
67501;BMP180;54349;52.528;19.760;2023-04-24T13:43:17;99354.00;;;24.66
67501;BMP180;54349;52.528;19.760;2023-04-24T13:45:45;99351.80;;;24.66
67501;BMP180;54349;52.528;19.760;2023-04-24T13:48:14;99351.60;;;24.62
67501;BMP180;54349;52.528;19.760;2023-04-24T13:50:46;99355.20;;;24.60
67501;BMP180;54349;52.528;19.760;2023-04-24T13:53:17;99361.40;;;24.60
67501;BMP180;54349;52.528;19.760;2023-04-24T13:55:45;99370.00;;;24.60
67501;BMP180;54349;52.528;19.760;2023-04-24T13:58:14;99375.80;;;24.60
67501;BMP180;54349;52.528;19.760;2023-04-24T14:00:43;99379.00;;;24.60
67501;BMP180;54349;52.528;19.760;2023-04-24T14:03:11;99379.80;;;24.60
67501;BMP180;54349;52.528;19.760;2023-04-24T14:05:40;99377.60;;;24.60
67501;BMP180;54349;52.528;19.760;2023-04-24T14:08:08;99377.00;;;24.60
67501;BMP180;54349;52.528;19.760;2023-04-24T14:10:40;99381.60;;;24.60
67501;BMP180;54349;52.528;19.760;2023-04-24T14:13:08;99390.20;;;24.60
67501;BMP180;54349;52.528;19.760;2023-04-24T14:15:36;99386.40;;;24.60
67501;BMP180;54349;52.528;19.760;2023-04-24T14:18:04;99396.60;;;24.58
67501;BMP180;54349;52.528;19.760;2023-04-24T14:20:33;99393.20;;;24.58
67501;BMP180;54349;52.528;19.760;2023-04-24T14:23:01;99393.20;;;24.60
67501;BMP180;54349;52.528;19.760;2023-04-24T14:25:31;99387.80;;;24.60
67501;BMP180;54349;52.528;19.760;2023-04-24T14:27:59;99387.40;;;24.60
67501;BMP180;54349;52.528;19.760;2023-04-24T14:30:28;99381.00;;;24.60
67501;BMP180;54349;52.528;19.760;2023-04-24T14:32:56;99384.60;;;24.56
67501;BMP180;54349;52.528;19.760;2023-04-24T14:35:25;99377.60;;;24.56
67501;BMP180;54349;52.528;19.760;2023-04-24T14:37:55;99375.40;;;24.50